createdAt,value
2023-01-11T00:01:53.383Z,4.40
2023-01-11T00:04:23.348Z,4.80
2023-01-11T00:06:51.786Z,4.40
2023-01-11T00:09:20.271Z,5.17
2023-01-11T00:11:50.398Z,6.57
2023-01-11T00:14:18.813Z,3.90
2023-01-11T00:16:47.284Z,4.73
2023-01-11T00:19:16.680Z,4.83
2023-01-11T00:21:45.081Z,4.20
2023-01-11T00:24:15.518Z,4.23
2023-01-11T00:26:43.905Z,5.47
2023-01-11T00:29:15.200Z,4.10
2023-01-11T00:31:43.681Z,6.03
2023-01-11T00:34:12.859Z,4.80
2023-01-11T00:36:41.292Z,4.63
2023-01-11T00:39:09.694Z,7.30
2023-01-11T00:41:55.209Z,7.40
2023-01-11T00:44:42.356Z,4.60
2023-01-11T00:47:32.978Z,6.03
2023-01-11T00:50:01.528Z,5.10
2023-01-11T00:52:30.087Z,4.70
2023-01-11T00:54:58.456Z,3.70
2023-01-11T00:57:26.833Z,7.07
2023-01-11T00:59:56.591Z,5.23
2023-01-11T01:02:27.072Z,4.70
2023-01-11T01:04:56.549Z,4.00
2023-01-11T01:07:25.091Z,10.73
2023-01-11T01:09:56.311Z,5.07
2023-01-11T01:12:38.599Z,6.40
2023-01-11T01:15:09.876Z,3.77
2023-01-11T01:17:38.271Z,4.23
2023-01-11T01:20:08.126Z,5.10
2023-01-11T01:22:36.532Z,7.80
2023-01-11T01:25:05.587Z,6.80
2023-01-11T01:27:34.666Z,3.50
2023-01-11T01:30:03.104Z,3.10
2023-01-11T01:32:33.519Z,6.53
2023-01-11T01:35:01.993Z,3.57
2023-01-11T01:37:30.369Z,4.17
2023-01-11T01:40:02.188Z,2.93
2023-01-11T01:42:30.597Z,4.07
2023-01-11T01:45:06.179Z,3.67
2023-01-11T01:47:45.499Z,3.43
2023-01-11T01:50:18.726Z,4.30
2023-01-11T01:52:52.813Z,3.30
2023-01-11T01:55:26.351Z,4.27
2023-01-11T01:57:58.201Z,7.00
2023-01-11T02:00:26.761Z,6.83
2023-01-11T02:02:58.480Z,3.30
2023-01-11T02:05:28.189Z,3.83
2023-01-11T02:07:59.129Z,2.67
2023-01-11T02:10:28.981Z,4.20
2023-01-11T02:13:01.377Z,5.63
2023-01-11T02:15:30.852Z,3.33
2023-01-11T02:18:00.743Z,8.70
2023-01-11T02:20:55.271Z,14.23
2023-01-11T02:23:48.062Z,4.53
2023-01-11T02:26:58.615Z,3.20
2023-01-11T02:29:38.875Z,4.83
2023-01-11T02:32:22.491Z,3.50
2023-01-11T02:34:59.190Z,6.33
2023-01-11T02:37:34.898Z,5.03
2023-01-11T02:40:10.525Z,4.43
2023-01-11T02:42:58.246Z,4.30
2023-01-11T02:45:42.271Z,3.57
2023-01-11T02:48:22.055Z,2.93
2023-01-11T02:50:57.189Z,3.20
2023-01-11T02:53:30.071Z,3.67
2023-01-11T02:56:02.780Z,5.97
2023-01-11T02:58:36.292Z,5.33
2023-01-11T03:01:06.785Z,3.90
2023-01-11T03:03:35.224Z,3.70
2023-01-11T03:06:07.111Z,3.97
2023-01-11T03:09:03.666Z,4.90
2023-01-11T03:12:04.527Z,3.87
2023-01-11T03:14:45.748Z,3.10
2023-01-11T03:17:29.777Z,3.20
2023-01-11T03:20:08.390Z,4.00
2023-01-11T03:22:47.217Z,3.87
2023-01-11T03:25:22.165Z,6.20
2023-01-11T03:27:58.444Z,4.80
2023-01-11T03:30:36.168Z,4.30
2023-01-11T03:33:11.437Z,5.20
2023-01-11T03:35:48.242Z,4.87
2023-01-11T03:38:23.132Z,3.60
2023-01-11T03:40:56.369Z,3.07
2023-01-11T03:43:29.141Z,3.30
2023-01-11T03:46:01.063Z,3.40
2023-01-11T03:48:35.797Z,4.30
2023-01-11T03:51:06.833Z,3.10
2023-01-11T03:53:37.798Z,3.57
2023-01-11T03:56:11.625Z,3.30
2023-01-11T03:58:41.049Z,3.40
2023-01-11T04:01:11.688Z,5.03
2023-01-11T04:03:41.500Z,3.43
2023-01-11T04:06:12.412Z,3.13
2023-01-11T04:08:40.787Z,5.93
2023-01-11T04:11:09.186Z,4.47
2023-01-11T04:13:38.332Z,3.27
2023-01-11T04:16:09.845Z,2.80
2023-01-11T04:18:38.243Z,2.70
2023-01-11T04:21:08.060Z,5.70
2023-01-11T04:23:36.431Z,3.73
2023-01-11T04:26:04.988Z,3.23
2023-01-11T04:28:33.354Z,5.03
2023-01-11T04:31:01.738Z,2.67
2023-01-11T04:33:30.230Z,3.33
2023-01-11T04:35:58.638Z,4.60
2023-01-11T04:38:28.400Z,3.40
2023-01-11T04:41:16.820Z,3.60
2023-01-11T04:43:44.275Z,4.10
2023-01-11T04:46:12.630Z,2.40
2023-01-11T04:48:42.038Z,5.00
2023-01-11T04:51:10.912Z,4.93
2023-01-11T04:53:41.167Z,3.00
2023-01-11T04:56:12.022Z,3.77
2023-01-11T04:58:40.408Z,3.93
2023-01-11T05:01:12.892Z,2.97
2023-01-11T05:03:41.315Z,3.23
2023-01-11T05:06:10.308Z,6.03
2023-01-11T05:08:45.914Z,3.03
2023-01-11T05:11:14.535Z,2.90
2023-01-11T05:13:42.999Z,2.77
2023-01-11T05:16:13.287Z,4.73
2023-01-11T05:18:42.649Z,4.30
2023-01-11T05:21:12.864Z,3.23
2023-01-11T05:23:41.900Z,5.47
2023-01-11T05:26:14.804Z,3.30
2023-01-11T05:28:43.501Z,3.00
2023-01-11T05:31:14.831Z,3.90
2023-01-11T05:33:43.530Z,3.80
2023-01-11T05:36:14.941Z,7.93
2023-01-11T05:38:43.774Z,6.10
2023-01-11T05:41:13.901Z,4.27
2023-01-11T05:43:58.738Z,4.70
2023-01-11T05:46:29.164Z,2.73
2023-01-11T05:48:59.260Z,4.80
2023-01-11T05:51:30.543Z,6.10
2023-01-11T05:53:59.194Z,5.03
2023-01-11T05:56:29.584Z,3.20
2023-01-11T05:58:58.404Z,4.57
2023-01-11T06:01:27.537Z,3.90
2023-01-11T06:03:56.031Z,2.93
2023-01-11T06:06:25.279Z,3.70
2023-01-11T06:08:53.852Z,4.93
2023-01-11T06:11:24.451Z,4.20
2023-01-11T06:13:54.264Z,5.13
2023-01-11T06:16:23.782Z,3.67
2023-01-11T06:18:53.811Z,3.07
2023-01-11T06:21:22.737Z,3.83
2023-01-11T06:23:51.978Z,3.70
2023-01-11T06:26:22.642Z,3.90
2023-01-11T06:28:52.140Z,3.60
2023-01-11T06:31:22.319Z,6.17
2023-01-11T06:33:50.960Z,5.20
2023-01-11T06:36:20.193Z,3.13
2023-01-11T06:38:48.623Z,4.53
2023-01-11T06:41:17.138Z,3.20
2023-01-11T06:43:46.492Z,3.57
2023-01-11T06:46:16.635Z,6.97
2023-01-11T06:48:47.069Z,16.10
2023-01-11T06:51:16.502Z,11.57
2023-01-11T06:53:46.047Z,4.77
2023-01-11T06:56:18.877Z,8.33
2023-01-11T06:58:48.619Z,4.87
2023-01-11T07:01:19.052Z,4.80
2023-01-11T07:03:49.281Z,6.73
2023-01-11T07:06:22.007Z,11.60
2023-01-11T07:08:50.530Z,5.50
2023-01-11T07:11:19.030Z,6.10
2023-01-11T07:13:47.512Z,6.10
2023-01-11T07:16:19.016Z,7.07
2023-01-11T07:18:48.877Z,15.50
2023-01-11T07:21:17.330Z,9.73
2023-01-11T07:23:46.077Z,19.67
2023-01-11T07:26:14.933Z,24.00
2023-01-11T07:28:44.542Z,33.90
2023-01-11T07:31:12.986Z,23.07
2023-01-11T07:33:43.608Z,38.77
2023-01-11T07:36:13.481Z,46.57
2023-01-11T07:38:44.027Z,35.83
2023-01-11T07:41:26.341Z,22.70
2023-01-11T07:43:54.870Z,29.70
2023-01-11T07:46:23.346Z,12.67
2023-01-11T07:48:51.828Z,13.27
2023-01-11T07:51:24.213Z,11.13
2023-01-11T07:53:52.670Z,61.33
2023-01-11T07:56:23.427Z,42.13
2023-01-11T07:58:52.072Z,37.77
2023-01-11T08:01:20.502Z,36.90
2023-01-11T08:03:49.034Z,24.03
2023-01-11T08:06:17.545Z,17.90
2023-01-11T08:08:47.397Z,18.00
2023-01-11T08:11:33.570Z,19.97
2023-01-11T08:14:19.258Z,14.03
2023-01-11T08:16:47.743Z,19.87
2023-01-11T08:19:16.223Z,18.97
2023-01-11T08:21:44.656Z,20.60
2023-01-11T08:24:14.577Z,26.77
2023-01-11T08:26:43.018Z,20.00
2023-01-11T08:29:11.600Z,31.67
2023-01-11T08:31:40.150Z,18.73
2023-01-11T08:34:09.327Z,19.73
2023-01-11T08:36:37.790Z,25.37
2023-01-11T08:39:06.387Z,21.27
2023-01-11T08:41:36.184Z,16.67
2023-01-11T08:44:04.579Z,8.23
2023-01-11T08:46:34.320Z,9.40
2023-01-11T08:49:03.218Z,10.23
2023-01-11T08:51:33.155Z,18.83
2023-01-11T08:54:01.610Z,9.00
2023-01-11T08:56:30.049Z,13.30
2023-01-11T08:58:59.913Z,9.13
2023-01-11T09:01:28.435Z,19.33
2023-01-11T09:03:56.969Z,11.23
2023-01-11T09:06:25.554Z,12.83
2023-01-11T09:08:54.341Z,11.93
2023-01-11T09:11:40.636Z,8.30
2023-01-11T09:14:12.865Z,13.23
2023-01-11T09:16:41.327Z,7.67
2023-01-11T09:19:09.752Z,10.13
2023-01-11T09:21:38.192Z,9.73
2023-01-11T09:24:07.280Z,12.87
2023-01-11T09:26:35.785Z,9.63
2023-01-11T09:29:04.573Z,17.20
2023-01-11T09:31:34.449Z,13.30
2023-01-11T09:34:04.871Z,11.03
2023-01-11T09:36:35.985Z,20.67
2023-01-11T09:39:08.366Z,12.87
2023-01-11T09:42:06.105Z,11.60
2023-01-11T09:44:36.845Z,19.37
2023-01-11T09:47:15.438Z,13.37
2023-01-11T09:49:56.074Z,10.17
2023-01-11T09:52:29.926Z,12.53
2023-01-11T09:54:59.890Z,7.80
2023-01-11T09:57:43.672Z,13.10
2023-01-11T10:00:19.965Z,8.73
2023-01-11T10:03:13.202Z,11.47
2023-01-11T10:05:54.037Z,10.53
2023-01-11T10:18:25.684Z,9.07
2023-01-11T10:18:39.624Z,8.07
2023-01-11T10:20:43.928Z,11.10
2023-01-11T10:23:18.021Z,6.90
2023-01-11T10:25:51.755Z,13.70
2023-01-11T10:28:29.531Z,6.10
2023-01-11T10:31:28.758Z,12.13
2023-01-11T10:34:18.618Z,6.23
2023-01-11T10:37:17.016Z,8.00
2023-01-11T10:40:15.427Z,5.43
2023-01-11T10:42:48.577Z,6.67
2023-01-11T10:45:19.800Z,7.57
2023-01-11T10:47:56.481Z,5.40
2023-01-11T10:50:29.569Z,4.27
2023-01-11T10:53:07.676Z,6.63
2023-01-11T10:55:45.427Z,9.20
2023-01-11T10:58:25.641Z,5.07
2023-01-11T11:01:04.176Z,6.73
2023-01-11T11:03:49.929Z,8.70
2023-01-11T11:06:30.319Z,6.87
2023-01-11T11:09:09.001Z,7.50
2023-01-11T11:11:42.686Z,6.10
2023-01-11T11:14:16.967Z,6.47
2023-01-11T11:17:00.485Z,5.30
2023-01-11T11:19:33.942Z,6.80
2023-01-11T11:22:02.490Z,5.90
2023-01-11T11:24:38.488Z,5.30
2023-01-11T11:27:15.627Z,7.83
2023-01-11T11:29:51.356Z,4.53
2023-01-11T11:32:27.810Z,4.77
2023-01-11T11:34:56.568Z,7.23
2023-01-11T11:37:28.545Z,7.73
2023-01-11T11:40:01.196Z,4.63
2023-01-11T11:42:29.853Z,8.10
2023-01-11T11:45:19.428Z,8.47
2023-01-11T11:48:02.915Z,6.70
2023-01-11T11:50:49.135Z,3.90
2023-01-11T11:53:37.192Z,5.83
2023-01-11T11:56:17.538Z,7.27
2023-01-11T11:58:47.080Z,7.33
2023-01-11T12:01:25.511Z,4.83
2023-01-11T12:03:56.276Z,6.60
2023-01-11T12:06:27.299Z,4.10
2023-01-11T12:08:57.470Z,5.20
2023-01-11T12:11:35.142Z,4.97
2023-01-11T12:14:16.499Z,6.37
2023-01-11T12:16:46.518Z,5.43
2023-01-11T12:19:35.328Z,7.10
2023-01-11T12:22:16.837Z,7.20
2023-01-11T12:24:46.785Z,5.00
2023-01-11T12:27:34.809Z,6.50
2023-01-11T12:30:23.866Z,7.30
2023-01-11T12:33:24.210Z,5.53
2023-01-11T12:36:03.162Z,5.47
2023-01-11T12:38:39.829Z,5.80
2023-01-11T12:41:44.676Z,6.30
2023-01-11T12:44:24.894Z,6.20
2023-01-11T12:47:06.970Z,7.93
2023-01-11T12:49:45.277Z,5.33
2023-01-11T12:52:39.197Z,8.80
2023-01-11T12:55:23.922Z,8.00
2023-01-11T12:58:01.925Z,9.00
2023-01-11T13:01:07.895Z,9.97
2023-01-11T13:04:15.492Z,9.57
2023-01-11T13:06:53.817Z,10.07
2023-01-11T13:09:33.535Z,7.17
2023-01-11T13:12:10.009Z,11.20
2023-01-11T13:14:58.054Z,14.77
2023-01-11T13:17:32.720Z,16.47
2023-01-11T13:20:16.809Z,12.13
2023-01-11T13:22:53.487Z,12.10
2023-01-11T13:25:25.184Z,10.47
2023-01-11T13:27:55.567Z,11.83
2023-01-11T13:30:25.373Z,8.93
2023-01-11T13:32:59.248Z,12.63
2023-01-11T13:35:38.240Z,9.40
2023-01-11T13:38:16.379Z,9.97
2023-01-11T13:40:49.813Z,11.40
2023-01-11T13:43:27.353Z,10.33
2023-01-11T13:46:03.713Z,10.40
2023-01-11T13:48:40.334Z,10.60
2023-01-11T13:51:20.981Z,7.60
2023-01-11T13:53:58.145Z,8.70
2023-01-11T13:56:31.506Z,12.80
2023-01-11T13:59:07.022Z,12.70
2023-01-11T14:01:48.722Z,7.30
2023-01-11T14:04:24.169Z,9.60
2023-01-11T14:07:07.665Z,8.90
2023-01-11T14:10:02.116Z,8.43
2023-01-11T14:12:42.473Z,7.50
2023-01-11T14:15:21.358Z,12.90
2023-01-11T14:18:09.753Z,10.23
2023-01-11T14:20:50.499Z,9.57
2023-01-11T14:23:21.140Z,11.63
2023-01-11T14:26:31.164Z,8.40
2023-01-11T14:29:15.667Z,9.17
2023-01-11T14:32:00.565Z,8.43
2023-01-11T14:34:49.602Z,10.17
2023-01-11T14:37:52.935Z,10.20
2023-01-11T14:40:54.201Z,10.00
2023-01-11T14:44:07.676Z,15.70
2023-01-11T14:47:09.281Z,20.40
2023-01-11T14:49:59.598Z,13.27
2023-01-11T14:52:39.731Z,13.30
2023-01-11T14:55:17.559Z,12.30
2023-01-11T14:58:02.582Z,9.37
2023-01-11T15:01:05.331Z,10.00
2023-01-11T15:03:46.736Z,9.33
2023-01-11T15:06:17.340Z,12.70
2023-01-11T15:08:48.653Z,12.80
2023-01-11T15:11:34.976Z,28.00
2023-01-11T15:14:30.340Z,12.30
2023-01-11T15:17:19.718Z,18.40
2023-01-11T15:19:50.163Z,13.80
2023-01-11T15:22:30.438Z,18.00
2023-01-11T15:25:01.913Z,10.83
2023-01-11T15:27:35.793Z,15.50
2023-01-11T15:30:06.113Z,13.90
2023-01-11T15:32:36.221Z,22.30
2023-01-11T15:35:34.992Z,17.90
2023-01-11T15:38:16.670Z,15.67
2023-01-11T15:40:47.439Z,16.80
2023-01-11T15:43:58.708Z,12.77
2023-01-11T15:46:56.962Z,15.03
2023-01-11T15:50:04.359Z,14.40
2023-01-11T15:53:16.542Z,16.43
2023-01-11T15:56:19.444Z,15.43
2023-01-11T15:59:29.556Z,22.73
2023-01-11T16:02:32.363Z,25.23
2023-01-11T16:05:12.552Z,18.07
2023-01-11T16:07:49.940Z,19.57
2023-01-11T16:10:44.164Z,17.10
2023-01-11T16:13:30.903Z,23.20
2023-01-11T16:16:14.343Z,13.27
2023-01-11T16:18:46.732Z,15.47
2023-01-11T16:21:21.405Z,20.40
2023-01-11T16:23:52.814Z,13.93
2023-01-11T16:26:22.324Z,24.23
2023-01-11T16:28:53.378Z,13.07
2023-01-11T16:31:23.251Z,13.97
2023-01-11T16:33:52.450Z,13.53
2023-01-11T16:36:22.968Z,15.23
2023-01-11T16:39:03.264Z,16.43
2023-01-11T16:41:36.173Z,20.50
2023-01-11T16:44:08.870Z,11.47
2023-01-11T16:47:12.162Z,17.30
2023-01-11T16:49:41.138Z,14.43
2023-01-11T16:52:34.780Z,12.50
2023-01-11T16:55:05.294Z,24.07
2023-01-11T16:57:39.440Z,14.50
2023-01-11T17:00:21.049Z,12.93
2023-01-11T17:03:01.894Z,21.13
2023-01-11T17:05:30.344Z,13.17
2023-01-11T17:07:58.829Z,12.20
2023-01-11T17:10:29.033Z,11.30
2023-01-11T17:13:43.193Z,13.03
2023-01-11T17:16:14.686Z,17.43
2023-01-11T17:18:45.316Z,15.67
2023-01-11T17:21:19.761Z,13.43
2023-01-11T17:23:50.287Z,18.23
2023-01-11T17:26:23.996Z,14.43
2023-01-11T17:28:57.344Z,19.00
2023-01-11T17:31:28.691Z,15.47
2023-01-11T17:34:16.788Z,20.10
2023-01-11T17:36:46.189Z,13.97
2023-01-11T17:39:26.422Z,17.37
2023-01-11T17:42:12.904Z,13.40
2023-01-11T17:44:59.191Z,15.27
2023-01-11T17:47:29.313Z,21.93
2023-01-11T17:50:02.081Z,22.10
2023-01-11T17:52:38.973Z,17.20
2023-01-11T17:55:17.782Z,15.80
2023-01-11T17:58:04.744Z,19.40
2023-01-11T18:00:33.318Z,16.30
2023-01-11T18:03:06.916Z,16.70
2023-01-11T18:05:37.028Z,16.63
2023-01-11T18:08:19.113Z,18.33
2023-01-11T18:10:54.179Z,21.70
2023-01-11T18:13:28.617Z,20.20
2023-01-11T18:15:57.164Z,21.83
2023-01-11T18:18:45.513Z,20.27
2023-01-11T18:21:51.403Z,18.47
2023-01-11T18:24:35.391Z,19.73
2023-01-11T18:27:16.615Z,19.07
2023-01-11T18:29:50.035Z,17.27
2023-01-11T18:32:21.531Z,21.00
2023-01-11T18:34:53.336Z,17.50
2023-01-11T18:37:23.529Z,22.87
2023-01-11T18:39:53.221Z,19.30
2023-01-11T18:42:25.522Z,27.17
2023-01-11T18:44:54.233Z,18.70
2023-01-11T18:47:24.493Z,25.33
2023-01-11T18:49:54.154Z,25.73
2023-01-11T18:52:27.548Z,19.57
2023-01-11T18:54:57.283Z,23.03
2023-01-11T18:57:28.816Z,21.63
2023-01-11T18:59:58.869Z,20.93
2023-01-11T19:02:30.581Z,19.60
2023-01-11T19:05:02.216Z,21.23
2023-01-11T19:07:33.109Z,19.20
2023-01-11T19:10:02.764Z,19.80
2023-01-11T19:12:31.169Z,21.03
2023-01-11T19:15:00.135Z,21.10
2023-01-11T19:17:28.734Z,23.37
2023-01-11T19:19:57.166Z,20.33
2023-01-11T19:22:26.732Z,19.77
2023-01-11T19:24:57.164Z,21.90
2023-01-11T19:27:25.593Z,23.73
2023-01-11T19:29:54.160Z,20.03
2023-01-11T19:32:25.077Z,29.40
2023-01-11T19:34:58.031Z,21.47
2023-01-11T19:37:27.564Z,18.20
2023-01-11T19:39:57.407Z,21.20
2023-01-11T19:42:25.921Z,29.90
2023-01-11T19:44:55.168Z,23.13
2023-01-11T19:47:23.652Z,25.90
2023-01-11T19:49:58.944Z,26.43
2023-01-11T19:52:27.911Z,23.20
2023-01-11T19:54:57.909Z,18.83
2023-01-11T19:57:27.547Z,25.10
2023-01-11T19:59:56.026Z,22.13
2023-01-11T20:02:24.776Z,20.27
2023-01-11T20:04:53.242Z,17.20
2023-01-11T20:07:22.097Z,22.00
2023-01-11T20:09:52.892Z,22.03
2023-01-11T20:12:22.885Z,22.30
2023-01-11T20:14:54.047Z,24.93
2023-01-11T20:17:23.154Z,22.07
2023-01-11T20:19:54.592Z,21.47
2023-01-11T20:22:23.526Z,23.37
2023-01-11T20:24:52.280Z,26.17
2023-01-11T20:27:22.189Z,25.43
2023-01-11T20:29:50.672Z,42.17
2023-01-11T20:32:39.936Z,31.60
2023-01-11T20:35:08.810Z,23.37
2023-01-11T20:37:37.395Z,24.30
2023-01-11T20:40:06.960Z,22.03
2023-01-11T20:42:36.814Z,20.63
2023-01-11T20:45:06.186Z,27.70
2023-01-11T20:47:35.532Z,29.20
2023-01-11T20:50:04.041Z,24.30
2023-01-11T20:52:35.137Z,20.77
2023-01-11T20:55:03.598Z,20.10
2023-01-11T20:57:32.054Z,19.43
2023-01-11T21:00:02.949Z,19.53
2023-01-11T21:02:31.457Z,25.00
2023-01-11T21:04:59.965Z,21.40
2023-01-11T21:07:28.517Z,20.53
2023-01-11T21:09:56.984Z,22.93
2023-01-11T21:12:25.472Z,24.03
2023-01-11T21:14:55.845Z,28.23
2023-01-11T21:17:25.808Z,22.87
2023-01-11T21:19:54.263Z,23.50
2023-01-11T21:22:22.799Z,23.00
2023-01-11T21:24:51.352Z,23.20
2023-01-11T21:27:22.520Z,22.93
2023-01-11T21:29:50.929Z,25.47
2023-01-11T21:32:19.462Z,20.73
2023-01-11T21:34:49.350Z,19.00
2023-01-11T21:37:19.879Z,23.47
2023-01-11T21:39:48.395Z,24.07
2023-01-11T21:42:16.863Z,23.07
2023-01-11T21:44:45.293Z,21.90
2023-01-11T21:47:14.787Z,23.07
2023-01-11T21:49:43.511Z,23.20
2023-01-11T21:52:13.485Z,19.93
2023-01-11T21:54:41.960Z,24.50
2023-01-11T21:57:10.413Z,23.20
2023-01-11T21:59:39.000Z,25.83
2023-01-11T22:02:07.697Z,27.30
2023-01-11T22:04:36.798Z,22.90
2023-01-11T22:07:05.540Z,20.70
2023-01-11T22:09:35.553Z,21.23
2023-01-11T22:12:06.565Z,25.10
2023-01-11T22:14:35.644Z,22.13
2023-01-11T22:17:04.644Z,26.23
2023-01-11T22:19:33.169Z,29.83
2023-01-11T22:22:02.278Z,17.70
2023-01-11T22:24:30.761Z,22.40
2023-01-11T22:27:00.833Z,22.90
2023-01-11T22:29:29.867Z,20.93
2023-01-11T22:32:01.354Z,23.60
2023-01-11T22:34:30.603Z,22.30
2023-01-11T22:36:59.028Z,31.37
2023-01-11T22:39:29.523Z,23.90
2023-01-11T22:41:58.002Z,25.63
2023-01-11T22:44:30.361Z,21.90
2023-01-11T22:47:01.436Z,20.20
2023-01-11T22:49:29.893Z,23.80
2023-01-11T22:51:58.329Z,21.80
2023-01-11T22:54:26.858Z,24.53
2023-01-11T22:56:56.993Z,32.23
2023-01-11T22:59:25.743Z,25.00
2023-01-11T23:01:55.665Z,19.37
2023-01-11T23:04:24.402Z,21.23
2023-01-11T23:06:52.892Z,19.43
2023-01-11T23:09:21.465Z,22.63
2023-01-11T23:12:07.471Z,19.80
2023-01-11T23:14:36.164Z,20.63
2023-01-11T23:17:08.423Z,23.43
2023-01-11T23:19:39.011Z,19.43
2023-01-11T23:22:08.395Z,20.80
2023-01-11T23:24:37.485Z,30.63
2023-01-11T23:27:06.928Z,20.67
2023-01-11T23:29:35.684Z,21.93
2023-01-11T23:32:06.109Z,23.67
2023-01-11T23:34:34.855Z,23.63
2023-01-11T23:37:03.409Z,24.33
2023-01-11T23:39:32.851Z,21.93
2023-01-11T23:42:20.807Z,23.27
2023-01-11T23:44:49.575Z,20.87
2023-01-11T23:47:21.331Z,21.10
2023-01-11T23:49:50.620Z,18.60
2023-01-11T23:52:20.135Z,25.00
2023-01-11T23:54:48.794Z,20.90
2023-01-11T23:57:18.461Z,32.50
2023-01-11T23:59:47.286Z,22.00
